AirNav   ATP
 
 932 users online  

65WN Whoopy Hollow Aerodrome
Wiota, Wisconsin, USA

GOING TO WIOTA?


FAA INFORMATION EFFECTIVE 20 JULY 2017

Location

FAA Identifier: 65WN
Lat/Long: 42-40-35.2132N / 089-56-16.7465W
42-40.586887N / 089-56.279108W
42.6764481 / -89.9379851
(estimated)
Elevation: 925 ft. / 282 m (estimated)
Variation: 01W (2000)
From city: 3 miles N of WIOTA, WI
Time zone: UTC -5 (UTC -6 during Standard Time)
Zip code: 53504

Airport Operations

Airport use: Private use. Permission required prior to landing
Activation date: 06/2002
Control tower: no
ARTCC: CHICAGO CENTER
FSS: GREEN BAY FLIGHT SERVICE STATION
Attendance: UNATNDD
Wind indicator: yes
Segmented circle: no

Airport Communications

WX AWOS-3 at EFT (16 nm E): 118.375 (608-328-8359)
WX AWOS-3 at MRJ (18 nm NW): 118.525 (608-987-2157)

Nearby radio navigation aids

VOR radial/distance  VOR name  Freq  Var
JVLr278/37.4JANESVILLE VOR/DME114.3003E
DBQr060/37.9DUBUQUE VORTAC115.8004E
LNRr167/38.1LONE ROCK VOR/DME112.8000E
MSNr220/38.5MADISON VORTAC108.6003E

 
NDB name  Hdg/Dist  Freq  Var  ID
MINERAL POINT134/18.036501EMRJ -- .-. .---
JANESVILLE272/39.737503EJVL .--- ...- .-..

Airport Services

Runway Information

Runway 13/31

Dimensions: 1800 x 75 ft. / 549 x 23 m
Surface: turf
RUNWAY 13  RUNWAY 31
Traffic pattern: leftleft

Airport Ownership and Management from official FAA records

Ownership: Privately-owned
Owner: MICHAEL & BARBARA DINGES
6062 WHITESIDE RD.
ARGYLE, WI 53504
Phone 608-553-3466
Manager: MICHAEL & BARBARA DINGES
6062 WHITESIDE RD.
ARGYLE, WI 53504
Phone 608-553-3466

Airport Operational Statistics

Aircraft based on the field: 2
Single engine airplanes: 2
    

Instrument Procedures

There are no published instrument procedures at 65WN.

Some nearby airports with instrument procedures:

KEFT - Monroe Municipal Airport (16 nm E)
KMRJ - Iowa County Airport (18 nm NW)
KPVB - Platteville Municipal Airport (22 nm W)
KFEP - Albertus Airport (30 nm SE)
C29 - Middleton Municipal Airport - Morey Field (32 nm NE)
 
Loc | Ops | Rwys | IFR | FBO | Links
Com | Nav | Svcs | Stats | Notes


 
Area around 65WN (Whoopy Hollow Aerodrome)
 
Road maps at: MapQuest Bing Google
 
Aerial photo
No photo
 
Sectional chart

 
Airport distance calculator
Flying to Whoopy Hollow Aerodrome? Find the distance to fly.

From to 65WN

Sunrise and sunset
Times for 20-Jul-2017
 Local
(UTC-5)
 Zulu
(UTC)
Morning civil twilight05:0710:07
Sunrise05:4110:41
Sunset20:3101:31
Evening civil twilight21:0502:05

Current date and time
Zulu (UTC)  21-Jul-2017 01:36:24
Local (UTC-5)  20-Jul-2017 20:36:24
 
METAR
KEFT 
16nm E 
210115Z AUTO 00000KT 10SM CLR 27/21 A2998 RMK AO2 LTG DSNT SW
KMRJ 
17nm NW 
210115Z AUTO 36003KT 10SM CLR 26/23 A3000 RMK AO2
KPVB 
22nm W 
210115Z AUTO 00000KT 7SM CLR 27/25 A2999 RMK AO1 T02700248
KFEP 
30nm SE 
210115Z AUTO 00000KT 10SM BKN028 27/25 A2999 RMK AO2 LTG DSNT SW T02650247
KC29 
32nm NE 
210115Z AUTO 34003KT 10SM CLR 26/24 A2999 RMK AO1 T02560236
TAF
KDBQ 
38nm SW 
202245Z 2023/2118 03008KT P6SM SCT020 BKN100 FM210100 06006KT P6SM BKN030 FM210900 11005KT 4SM BR VCTS OVC050CB FM211500 14007KT 6SM HZ BKN070
KMSN 
38nm NE 
210001Z 2100/2124 00000KT P6SM BKN200 FM210900 00000KT 4SM BR SCT150 FM211300 14005KT P6SM SCT035 BKN140 FM211600 14006KT P6SM SCT035 BKN120 FM211800 15007KT P6SM SCT035 BKN100 FM212100 14008KT P6SM SHRA VCTS SCT035CB BKN090
KRFD 
47nm SE 
202354Z 2100/2124 35007KT P6SM SCT040 BKN150 FM210200 07005KT P6SM SCT050 BKN100 FM211300 10005KT 5SM BR BKN035 FM211800 14009KT P6SM VCSH SCT050 BKN150 PROB30 2121/2124 4SM -TSRA OVC040CB
NOTAMs
Click for the latest NOTAMs
NOTAMs are issued by the DoD/FAA and will open in a separate window not controlled by AirNav.

 

 
 

Would you like to see your business listed on this page?

 If your business provides an interesting product or service to pilots, flight crews, aircraft, or users of the Whoopy Hollow Aerodrome, you should consider listing it here.  To start the listing process, click on the button below
 
Add a business
 

Other Pages about Whoopy Hollow Aerodrome

Update a link
 
Copyright © AirNav, LLC. All rights reserved. Privacy Policy  Contact